Time;durP1;ratioP1;P1;durP2;ratioP2;P2;SDS_P1;SDS_P2;PMS_P1;PMS_P2;Temp;Humidity;BMP_temperature;BMP_pressure;BME280_temperature;BME280_humidity;BME280_pressure;Samples;Min_cycle;Max_cycle;Signal;HPM_P1;HPM_P2
2022/01/23 00:02:14;;;;;;;17.25;8.40;;;;;;;0.15;49.33;100963.88;5006187;28;20463;-81
2022/01/23 00:04:40;;;;;;;13.73;7.63;;;;;;;0.22;49.75;100968.03;4995834;28;20055;-80
2022/01/23 00:07:09;;;;;;;22.02;8.50;;;;;;;0.21;49.60;100961.03;4965358;28;20088;-82
2022/01/23 00:09:36;;;;;;;16.33;7.90;;;;;;;0.22;49.47;100968.03;5014364;28;20037;-80
2022/01/23 00:12:09;;;;;;;15.38;8.07;;;;;;;0.27;49.05;100971.41;5013767;28;20029;-80
2022/01/23 00:17:20;;;;;;;17.38;8.23;;;;;;;0.19;48.91;100955.78;5013766;28;20124;-81
2022/01/23 00:19:57;;;;;;;20.80;10.05;;;;;;;0.29;48.66;100970.44;5013899;28;20053;-81
2022/01/23 00:22:36;;;;;;;17.90;8.68;;;;;;;0.22;49.01;100955.69;4991506;28;20097;-81
2022/01/23 00:30:32;;;;;;;20.27;8.75;;;;;;;0.21;48.75;100967.19;5014337;28;20395;-80
2022/01/23 00:33:04;;;;;;;17.48;8.57;;;;;;;0.16;48.84;100969.13;4995701;28;20522;-80
2022/01/23 00:35:37;;;;;;;13.75;7.95;;;;;;;0.22;48.76;100965.41;5014394;28;20053;-80
2022/01/23 00:38:06;;;;;;;15.25;7.45;;;;;;;0.19;48.84;100973.44;5022550;28;20025;-79
2022/01/23 00:40:35;;;;;;;17.58;8.13;;;;;;;0.27;48.29;100971.41;5016504;28;20105;-79
2022/01/23 00:43:06;;;;;;;18.88;8.60;;;;;;;0.29;48.52;100980.16;4995604;28;20091;-79
2022/01/23 00:45:33;;;;;;;17.38;7.78;;;;;;;0.20;48.42;100964.59;5013160;28;20103;-80
2022/01/23 00:48:07;;;;;;;17.20;7.88;;;;;;;0.25;48.24;100973.22;5013009;28;20110;-80
2022/01/23 00:50:43;;;;;;;16.20;7.35;;;;;;;0.15;48.21;100980.63;5013038;28;20036;-80
2022/01/23 00:53:11;;;;;;;15.43;8.20;;;;;;;0.07;48.13;100973.84;5013594;28;20101;-80
2022/01/23 00:55:38;;;;;;;24.45;9.45;;;;;;;0.09;48.46;100977.31;4995734;28;20522;-81
2022/01/23 00:58:06;;;;;;;20.05;9.15;;;;;;;0.00;48.16;100979.31;5007766;28;20405;-80
2022/01/23 01:00:35;;;;;;;17.67;8.52;;;;;;;0.08;46.98;100980.88;4993427;28;20032;-81
2022/01/23 01:03:01;;;;;;;19.55;8.55;;;;;;;0.06;47.45;100974.78;4992969;28;20109;-80
2022/01/23 01:05:28;;;;;;;18.00;8.50;;;;;;;-0.05;47.13;100973.34;4993539;28;20030;-80
2022/01/23 01:07:59;;;;;;;16.05;7.93;;;;;;;-0.09;47.39;100963.75;4993807;28;20026;-80
2022/01/23 01:10:33;;;;;;;18.63;7.97;;;;;;;-0.06;46.80;100962.78;4993564;28;20018;-79
2022/01/23 01:13:01;;;;;;;21.02;8.50;;;;;;;-0.10;47.37;100962.06;4976290;28;20022;-79
2022/01/23 01:15:53;;;;;;;22.85;9.80;;;;;;;-0.08;47.06;100949.63;4995354;28;20034;-79
2022/01/23 01:32:06;;;;;;;22.27;9.85;;;;;;;-0.05;46.63;100959.25;4996551;28;20416;-81
2022/01/23 01:34:48;;;;;;;15.98;8.43;;;;;;;0.06;46.81;100961.56;5017007;28;20022;-80
2022/01/23 01:37:14;;;;;;;18.00;9.07;;;;;;;0.10;46.67;100973.72;4999562;28;20484;-79
2022/01/23 01:39:40;;;;;;;22.45;8.85;;;;;;;0.17;46.94;100964.69;4999797;28;20026;-81
2022/01/23 01:42:06;;;;;;;18.35;8.27;;;;;;;0.16;46.56;100958.53;5017082;28;20036;-81
2022/01/23 01:44:31;;;;;;;17.42;8.30;;;;;;;0.23;46.42;100969.78;4995913;28;20187;-81
2022/01/23 01:46:57;;;;;;;13.43;8.27;;;;;;;0.29;46.02;100969.56;4997183;28;20033;-81
2022/01/23 01:49:29;;;;;;;16.85;8.73;;;;;;;0.26;46.58;100974.97;4997165;28;20018;-80
2022/01/23 01:51:57;;;;;;;15.20;7.83;;;;;;;0.22;46.06;100970.69;4995854;28;20381;-79
2022/01/23 01:54:25;;;;;;;17.65;8.82;;;;;;;0.24;46.29;100982.09;4997294;28;20026;-80
2022/01/23 01:57:04;;;;;;;19.92;9.32;;;;;;;0.19;46.29;101000.75;4996635;28;20041;-80
2022/01/23 02:00:10;;;;;;;19.10;9.10;;;;;;;0.12;45.89;100977.22;5012043;28;20042;-81
2022/01/23 02:10:50;;;;;;;18.35;8.63;;;;;;;-0.14;47.55;100984.19;5016678;28;20047;-80
2022/01/23 02:13:19;;;;;;;27.60;9.68;;;;;;;-0.19;47.69;100994.06;4999188;28;20088;-79
2022/01/23 02:18:31;;;;;;;16.10;9.70;;;;;;;-0.28;48.56;100990.84;5016428;28;20046;-78
2022/01/23 02:51:07;;;;;;;22.73;9.07;;;;;;;-0.57;53.42;101013.72;5016040;28;20117;-79
2022/01/23 02:56:14;;;;;;;24.35;10.52;;;;;;;-0.47;53.97;101018.75;5014448;28;20428;-80
2022/01/23 02:58:55;;;;;;;59.63;18.67;;;;;;;-0.51;54.03;101022.38;5034901;28;20456;-80
2022/01/23 03:01:21;;;;;;;23.65;10.57;;;;;;;-0.52;54.59;101020.66;5035359;28;20053;-79
2022/01/23 03:03:55;;;;;;;19.05;9.68;;;;;;;-0.48;54.85;101020.50;5035689;28;20026;-79
2022/01/23 03:06:39;;;;;;;24.40;10.07;;;;;;;-0.53;54.80;101022.44;5041998;28;20375;-78
2022/01/23 03:30:28;;;;;;;22.40;9.23;;;;;;;-0.55;57.80;101026.88;5015258;28;20036;-80
2022/01/23 03:32:55;;;;;;;21.38;9.50;;;;;;;-0.66;58.12;101023.69;5014564;28;20461;-80
2022/01/23 03:35:21;;;;;;;18.23;9.10;;;;;;;-0.60;58.21;101044.66;5013128;28;20044;-80
2022/01/23 03:37:48;;;;;;;20.08;9.35;;;;;;;-0.62;58.18;101046.47;5002853;28;20029;-80
2022/01/23 03:40:16;;;;;;;15.27;9.25;;;;;;;-0.59;57.87;101049.03;5015842;28;20021;-80
2022/01/23 03:42:43;;;;;;;24.27;8.93;;;;;;;-0.53;57.59;101059.41;5016153;28;20053;-80
2022/01/23 03:50:38;;;;;;;17.63;8.98;;;;;;;-0.56;57.71;101072.72;5019420;28;20060;-79
2022/01/23 03:53:05;;;;;;;18.83;8.77;;;;;;;-0.54;57.82;101073.53;5013844;28;20120;-80
2022/01/23 03:55:31;;;;;;;17.60;8.23;;;;;;;-0.60;57.39;101065.78;4996313;28;20041;-80
2022/01/23 03:57:56;;;;;;;17.83;11.30;;;;;;;-0.51;57.43;101068.16;5001331;28;20148;-80
2022/01/23 04:00:23;;;;;;;21.10;9.50;;;;;;;-0.60;57.47;101065.78;5015521;28;20116;-80
2022/01/23 04:02:50;;;;;;;16.23;8.52;;;;;;;-0.57;57.32;101078.91;5019660;28;20034;-80
2022/01/23 04:05:15;;;;;;;18.15;9.07;;;;;;;-0.60;57.40;101076.34;5012668;28;20408;-80
2022/01/23 04:07:41;;;;;;;15.30;8.00;;;;;;;-0.61;57.79;101080.75;5013498;28;20025;-79
2022/01/23 04:10:08;;;;;;;20.17;9.60;;;;;;;-0.63;57.59;101084.34;5014187;28;21755;-79
2022/01/23 04:45:30;;;;;;;16.00;8.65;;;;;;;-0.70;59.56;101094.22;5018233;28;20076;-81
2022/01/23 05:04:40;;;;;;;18.75;10.13;;;;;;;-0.80;59.92;101135.00;5013061;28;20091;-81
2022/01/23 05:07:08;;;;;;;16.65;9.38;;;;;;;-0.81;60.57;101142.97;5033142;28;20094;-81
2022/01/23 05:09:35;;;;;;;13.85;7.78;;;;;;;-0.80;60.52;101135.00;5022055;28;20591;-81
2022/01/23 05:12:03;;;;;;;21.90;10.75;;;;;;;-0.71;60.09;101147.97;5000160;28;20036;-79
2022/01/23 05:14:41;;;;;;;19.77;8.52;;;;;;;-0.60;59.96;101164.38;4995261;28;20094;-80
2022/01/23 05:17:11;;;;;;;18.10;8.52;;;;;;;-0.61;59.99;101167.03;5012492;28;20028;-81
2022/01/23 05:19:38;;;;;;;16.00;8.38;;;;;;;-0.61;59.82;101172.31;5013474;28;20014;-80
2022/01/23 05:24:37;;;;;;;19.75;10.25;;;;;;;-0.62;59.42;101167.97;5012926;28;20032;-80
2022/01/23 05:27:06;;;;;;;22.08;10.70;;;;;;;-0.61;59.32;101177.59;5019456;28;20079;-81
2022/01/23 05:29:33;;;;;;;27.52;12.52;;;;;;;-0.56;58.99;101178.38;5015432;28;20036;-80
2022/01/23 05:31:58;;;;;;;39.65;16.98;;;;;;;-0.52;58.60;101182.63;5033043;28;20017;-79
2022/01/23 05:34:25;;;;;;;32.53;14.73;;;;;;;-0.60;59.00;101182.00;5032893;28;20033;-80
2022/01/23 05:36:51;;;;;;;24.58;12.18;;;;;;;-0.66;58.90;101183.03;5014912;28;20032;-80
2022/01/23 05:39:20;;;;;;;23.67;12.75;;;;;;;-0.59;58.65;101186.38;5032554;28;20021;-79
2022/01/23 05:41:52;;;;;;;26.15;12.98;;;;;;;-0.61;58.72;101180.25;5031340;28;20120;-79
2022/01/23 05:44:18;;;;;;;44.72;17.02;;;;;;;-0.52;58.62;101193.22;5006013;28;20029;-77
2022/01/23 05:46:44;;;;;;;25.90;11.73;;;;;;;-0.59;58.82;101199.59;5031836;28;20025;-77
2022/01/23 05:49:09;;;;;;;26.38;12.35;;;;;;;-0.64;58.72;101204.09;5031428;28;20084;-77
2022/01/23 05:51:35;;;;;;;23.80;10.32;;;;;;;-0.67;58.42;101197.13;5031591;28;20506;-77
2022/01/23 05:54:00;;;;;;;27.33;12.73;;;;;;;-0.63;58.35;101214.66;5014027;28;20463;-77
2022/01/23 05:56:44;;;;;;;19.63;9.95;;;;;;;-0.71;58.26;101211.34;5011972;28;20037;-77
2022/01/23 05:59:09;;;;;;;25.65;11.13;;;;;;;-0.68;58.07;101219.19;4963300;28;20055;-76
2022/01/23 06:01:35;;;;;;;21.35;11.55;;;;;;;-0.76;58.07;101207.06;4998947;28;20050;-77
2022/01/23 06:04:01;;;;;;;19.23;11.25;;;;;;;-0.81;58.29;101194.00;4995978;28;20195;-77
2022/01/23 06:06:27;;;;;;;17.95;10.75;;;;;;;-0.79;58.11;101217.72;4997122;28;20038;-77
2022/01/23 06:08:52;;;;;;;23.15;11.95;;;;;;;-0.81;58.01;101215.13;4997648;28;20407;-78
2022/01/23 06:11:18;;;;;;;24.65;12.45;;;;;;;-0.82;57.95;101216.03;4991218;28;20042;-77
2022/01/23 06:13:45;;;;;;;20.52;11.90;;;;;;;-0.77;57.95;101223.84;4994172;28;20046;-76
2022/01/23 06:16:11;;;;;;;21.02;11.05;;;;;;;-0.72;57.89;101227.22;4977991;28;20504;-76
2022/01/23 06:18:39;;;;;;;19.80;10.68;;;;;;;-0.78;57.57;101217.69;4978245;28;20030;-76
2022/01/23 06:21:04;;;;;;;26.30;13.57;;;;;;;-0.77;57.47;101231.75;4996071;28;20404;-76
2022/01/23 06:23:31;;;;;;;28.30;11.77;;;;;;;-0.75;57.73;101232.56;4985872;28;20100;-77
2022/01/23 06:25:57;;;;;;;16.63;9.25;;;;;;;-0.72;57.75;101240.41;5014548;28;20032;-77
2022/01/23 06:28:49;;;;;;;24.08;11.98;;;;;;;-0.66;57.51;101240.25;5014221;28;20030;-77
2022/01/23 06:31:15;;;;;;;23.95;11.00;;;;;;;-0.64;57.16;101235.78;5012958;28;20021;-76
2022/01/23 06:33:41;;;;;;;21.38;11.23;;;;;;;-0.57;57.27;101250.59;5014519;28;20052;-76
2022/01/23 06:36:07;;;;;;;19.50;11.68;;;;;;;-0.50;56.89;101238.97;4980344;28;20026;-76
2022/01/23 06:38:32;;;;;;;22.48;11.95;;;;;;;-0.51;57.19;101245.16;5014475;28;20369;-76
2022/01/23 06:40:58;;;;;;;25.88;10.27;;;;;;;-0.45;57.28;101239.69;5000529;28;20030;-77
2022/01/23 06:43:23;;;;;;;29.45;12.10;;;;;;;-0.41;56.70;101232.56;5005501;28;20030;-78
2022/01/23 06:45:48;;;;;;;24.95;12.75;;;;;;;-0.35;56.67;101235.03;5014189;28;20050;-76
2022/01/23 06:48:14;;;;;;;29.95;13.18;;;;;;;-0.37;56.17;101227.16;4996328;28;20041;-77
2022/01/23 06:50:40;;;;;;;27.10;13.30;;;;;;;-0.30;56.32;101238.41;5013917;28;20341;-76
2022/01/23 06:53:05;;;;;;;29.05;11.98;;;;;;;-0.29;56.00;101238.38;4988378;28;20038;-77
2022/01/23 06:55:31;;;;;;;25.52;11.88;;;;;;;-0.23;56.31;101240.88;5011096;28;20080;-77
2022/01/23 06:57:57;;;;;;;21.45;13.40;;;;;;;-0.12;56.13;101252.00;4995881;28;20030;-77
2022/01/23 07:00:23;;;;;;;31.67;12.40;;;;;;;-0.09;55.61;101249.28;4996335;28;20024;-76
2022/01/23 07:02:48;;;;;;;21.42;11.55;;;;;;;-0.09;55.06;101243.97;4980156;28;20021;-76
2022/01/23 07:05:15;;;;;;;23.13;11.77;;;;;;;-0.06;55.11;101243.03;4999894;28;20030;-77
2022/01/23 07:07:41;;;;;;;31.58;14.25;;;;;;;-0.13;54.64;101241.47;4993964;28;20487;-76
2022/01/23 07:10:07;;;;;;;25.35;13.77;;;;;;;-0.07;54.82;101236.91;4994747;28;20058;-78
2022/01/23 07:12:32;;;;;;;22.02;11.80;;;;;;;-0.21;54.79;101243.44;4993822;28;20022;-77
2022/01/23 07:14:58;;;;;;;23.80;12.88;;;;;;;-0.09;55.07;101243.97;4993208;28;20033;-77
2022/01/23 07:17:23;;;;;;;22.23;11.70;;;;;;;-0.06;54.79;101246.53;5010287;28;20029;-77
2022/01/23 07:19:49;;;;;;;20.13;10.52;;;;;;;0.04;54.48;101254.22;5013515;28;20076;-76
2022/01/23 07:22:14;;;;;;;18.80;10.02;;;;;;;0.11;54.11;101239.91;5013725;28;20475;-76
2022/01/23 07:24:40;;;;;;;23.55;11.65;;;;;;;0.15;54.01;101246.84;5012864;28;20029;-77
2022/01/23 07:27:19;;;;;;;23.27;11.75;;;;;;;0.29;53.17;101244.66;5013425;28;20052;-76
2022/01/23 07:29:46;;;;;;;21.42;11.95;;;;;;;0.33;53.17;101252.47;4994837;28;20399;-77
2022/01/23 07:32:12;;;;;;;27.45;10.57;;;;;;;0.41;53.21;101255.75;4999268;28;20448;-77
2022/01/23 07:34:38;;;;;;;25.83;10.80;;;;;;;0.44;53.28;101245.09;4993733;28;20057;-76
2022/01/23 07:37:03;;;;;;;22.67;11.27;;;;;;;0.51;52.38;101254.56;4993799;28;20101;-78
2022/01/23 07:39:29;;;;;;;29.92;13.88;;;;;;;0.50;52.03;101239.59;4993705;28;20018;-77
2022/01/23 07:41:54;;;;;;;51.47;20.27;;;;;;;0.51;52.51;101237.81;5012226;28;20088;-77
2022/01/23 07:44:20;;;;;;;34.40;13.80;;;;;;;0.54;51.71;101220.09;5013484;28;20037;-77
2022/01/23 07:46:45;;;;;;;19.30;10.75;;;;;;;0.64;50.90;101228.59;5008725;28;20026;-77
2022/01/23 07:49:11;;;;;;;23.13;10.38;;;;;;;0.61;50.69;101238.41;5013141;28;20030;-76
2022/01/23 07:51:36;;;;;;;23.55;11.45;;;;;;;0.63;50.64;101226.88;5016272;28;20026;-75
2022/01/23 07:54:02;;;;;;;57.28;23.05;;;;;;;0.71;51.43;101232.78;4996934;28;20108;-77
2022/01/23 07:56:28;;;;;;;22.75;11.15;;;;;;;0.78;50.79;101228.16;5015117;28;20101;-78
2022/01/23 07:58:53;;;;;;;22.13;9.90;;;;;;;0.80;50.61;101226.31;5016080;28;20084;-77
2022/01/23 08:01:19;;;;;;;22.65;10.68;;;;;;;0.86;50.17;101228.75;5014920;28;20110;-75
2022/01/23 08:03:44;;;;;;;40.75;16.20;;;;;;;0.76;50.00;101217.63;5013411;28;20109;-77
2022/01/23 08:06:12;;;;;;;31.52;11.80;;;;;;;0.74;50.25;101230.03;5013039;28;20116;-77
2022/01/23 08:08:38;;;;;;;29.98;13.07;;;;;;;0.77;50.90;101226.41;5012999;28;20096;-77
2022/01/23 08:11:04;;;;;;;19.08;9.73;;;;;;;0.86;50.47;101223.47;5012395;28;20460;-78
2022/01/23 08:13:29;;;;;;;23.27;11.18;;;;;;;0.93;50.63;101225.88;5012361;28;20026;-78
2022/01/23 08:15:55;;;;;;;16.40;7.55;;;;;;;0.98;50.56;101223.94;5012632;28;20393;-77
2022/01/23 08:18:20;;;;;;;16.67;8.77;;;;;;;1.05;50.09;101227.25;5012496;28;20030;-77
2022/01/23 08:20:46;;;;;;;24.13;12.70;;;;;;;1.09;50.00;101224.47;5011895;28;20088;-77
2022/01/23 08:23:13;;;;;;;15.05;7.93;;;;;;;1.14;49.87;101224.31;5012520;28;20030;-76
2022/01/23 08:25:38;;;;;;;17.83;9.07;;;;;;;1.28;49.83;101226.50;5012305;28;20117;-77
2022/01/23 08:28:04;;;;;;;22.63;11.13;;;;;;;1.34;49.79;101229.81;5012490;28;20447;-78
2022/01/23 08:30:29;;;;;;;31.35;12.82;;;;;;;1.47;49.53;101240.84;5012208;28;20099;-78
2022/01/23 08:32:55;;;;;;;18.40;9.18;;;;;;;1.51;48.98;101237.19;5011832;28;20037;-77
2022/01/23 08:35:20;;;;;;;12.30;7.43;;;;;;;1.54;48.74;101237.06;5012640;28;20026;-77
2022/01/23 08:37:46;;;;;;;15.93;7.60;;;;;;;1.53;48.38;101232.69;5012531;28;20021;-79
2022/01/23 08:40:22;;;;;;;18.83;8.43;;;;;;;1.57;48.36;101239.63;5012251;28;20021;-78
2022/01/23 08:42:47;;;;;;;18.35;8.23;;;;;;;1.59;48.42;101233.34;4992242;28;20064;-76
2022/01/23 08:45:14;;;;;;;18.42;8.77;;;;;;;1.64;48.19;101233.19;4974650;28;20436;-78
2022/01/23 08:47:40;;;;;;;21.23;9.30;;;;;;;1.62;48.19;101230.56;4992541;28;20042;-77
2022/01/23 08:50:06;;;;;;;21.33;10.20;;;;;;;1.70;48.75;101238.28;5002662;28;20105;-77
2022/01/23 08:52:31;;;;;;;11.57;7.57;;;;;;;1.85;47.76;101227.13;5011697;28;20446;-77
2022/01/23 08:54:57;;;;;;;16.55;9.65;;;;;;;1.89;48.27;101239.38;5011778;28;20743;-77
2022/01/23 08:57:24;;;;;;;12.15;6.95;;;;;;;2.07;47.88;101232.53;5011785;28;20037;-77
2022/01/23 08:59:50;;;;;;;12.70;7.93;;;;;;;2.16;47.92;101226.88;5003208;28;20048;-78
2022/01/23 09:02:17;;;;;;;12.52;7.15;;;;;;;2.34;47.40;101225.31;4992436;28;20427;-78
2022/01/23 09:04:46;;;;;;;13.20;7.35;;;;;;;2.38;47.39;101227.81;4974858;28;20034;-78
2022/01/23 09:07:12;;;;;;;11.18;6.72;;;;;;;2.50;47.17;101215.84;4992306;28;20455;-77
2022/01/23 09:09:40;;;;;;;11.82;7.30;;;;;;;2.46;46.99;101214.22;4997450;28;20096;-77
2022/01/23 09:14:55;;;;;;;18.52;7.03;;;;;;;2.52;47.46;101216.63;5012058;28;20059;-77
2022/01/23 09:17:20;;;;;;;16.25;8.27;;;;;;;2.53;47.40;101210.41;5011645;28;20472;-77
2022/01/23 09:19:47;;;;;;;21.02;8.05;;;;;;;2.54;47.66;101212.13;5011767;28;20032;-77
2022/01/23 09:22:13;;;;;;;19.67;8.18;;;;;;;2.58;47.83;101211.09;4999087;28;20061;-79
2022/01/23 09:24:39;;;;;;;12.05;6.15;;;;;;;2.57;47.28;101214.66;4992473;28;20033;-76
2022/01/23 09:27:07;;;;;;;12.32;6.10;;;;;;;2.46;47.36;101198.28;4992503;28;20086;-77
2022/01/23 09:29:40;;;;;;;12.48;6.97;;;;;;;2.47;47.85;101202.69;4992445;28;20050;-78
2022/01/23 09:32:14;;;;;;;15.55;5.65;;;;;;;2.37;47.74;101203.94;4993731;28;20378;-78
2022/01/23 09:34:41;;;;;;;9.20;5.45;;;;;;;2.36;47.86;101203.09;5015717;28;20471;-78
2022/01/23 09:37:08;;;;;;;16.67;6.18;;;;;;;2.30;48.04;101208.63;5011110;28;20511;-77
2022/01/23 09:39:35;;;;;;;16.25;7.68;;;;;;;2.27;48.34;101207.88;4995576;28;20133;-77
2022/01/23 09:42:12;;;;;;;11.00;5.43;;;;;;;2.27;48.55;101194.59;5000789;28;20551;-77
2022/01/23 09:44:43;;;;;;;12.05;6.43;;;;;;;2.27;48.38;101181.34;4996063;28;20031;-77
2022/01/23 09:47:12;;;;;;;19.38;8.52;;;;;;;2.18;48.11;101175.47;4995902;28;20029;-77
2022/01/23 09:49:39;;;;;;;10.38;6.03;;;;;;;2.29;47.95;101179.50;4995849;28;20487;-78
2022/01/23 09:52:07;;;;;;;13.90;5.07;;;;;;;2.30;47.66;101175.91;4996584;28;20142;-79
2022/01/23 09:54:33;;;;;;;16.25;7.20;;;;;;;2.26;47.66;101169.88;4995962;28;20037;-76
2022/01/23 09:57:05;;;;;;;11.10;5.75;;;;;;;2.44;47.33;101170.94;4997506;28;20443;-80
2022/01/23 09:59:31;;;;;;;12.52;5.85;;;;;;;2.48;46.91;101169.88;5000976;28;20104;-82
2022/01/23 10:01:57;;;;;;;9.07;5.57;;;;;;;2.51;45.70;101170.63;5016209;28;20022;-83
2022/01/23 10:04:24;;;;;;;12.52;6.05;;;;;;;2.62;46.01;101156.94;5016352;28;20026;-81
2022/01/23 10:06:51;;;;;;;9.60;5.07;;;;;;;2.74;46.33;101157.31;5016712;28;20357;-81
2022/01/23 10:09:20;;;;;;;8.60;5.10;;;;;;;2.89;45.48;101163.78;5016153;28;20472;-82
2022/01/23 10:11:46;;;;;;;7.60;4.40;;;;;;;3.02;44.46;101162.34;5008890;28;20018;-81
2022/01/23 10:14:12;;;;;;;14.50;6.53;;;;;;;3.07;44.36;101141.75;4996753;28;20037;-81
2022/01/23 10:16:38;;;;;;;8.10;5.43;;;;;;;3.22;44.49;101149.06;5013349;28;20540;-81
2022/01/23 10:19:04;;;;;;;12.68;6.32;;;;;;;3.25;44.44;101154.25;5016767;28;20141;-81
2022/01/23 10:21:34;;;;;;;13.90;6.25;;;;;;;3.22;43.61;101126.94;5017175;28;20472;-81
2022/01/23 10:24:00;;;;;;;13.75;7.40;;;;;;;3.31;43.86;101134.50;5017299;28;20028;-82
2022/01/23 10:26:56;;;;;;;9.93;6.07;;;;;;;3.28;43.15;101130.19;5015621;28;20022;-81
2022/01/23 10:29:29;;;;;;;16.15;7.13;;;;;;;3.51;43.31;101138.97;4998229;28;20470;-81
2022/01/23 10:32:21;;;;;;;27.85;12.77;;;;;;;3.57;42.89;101159.97;5016374;28;20022;-83
2022/01/23 10:35:02;;;;;;;9.05;5.43;;;;;;;3.41;42.31;101159.78;5016143;28;20052;-81
2022/01/23 10:37:33;;;;;;;14.30;7.57;;;;;;;3.38;42.74;101148.41;5020128;28;20052;-82
2022/01/23 10:40:05;;;;;;;14.70;7.10;;;;;;;3.35;43.23;101152.06;5016514;28;20456;-81
2022/01/23 10:47:51;;;;;;;18.58;8.45;;;;;;;3.50;42.99;101154.06;5017160;28;20060;-80
2022/01/23 10:50:21;;;;;;;10.95;5.20;;;;;;;3.57;43.15;101149.34;5000083;28;20495;-80
2022/01/23 10:52:48;;;;;;;7.72;4.88;;;;;;;3.66;42.33;101147.13;4996280;28;20050;-81
2022/01/23 10:55:13;;;;;;;9.43;5.40;;;;;;;3.86;42.41;101130.25;5001049;28;20030;-81
2022/01/23 10:57:45;;;;;;;10.35;6.35;;;;;;;3.98;41.95;101135.00;5004474;28;20034;-82
2022/01/23 11:00:38;;;;;;;12.33;6.43;;;;;;;4.05;41.66;101141.78;4995601;28;20057;-82
2022/01/23 11:03:22;;;;;;;18.17;7.13;;;;;;;4.12;41.49;101143.25;4997066;28;20037;-79
2022/01/23 11:05:49;;;;;;;18.90;6.57;;;;;;;4.13;41.18;101122.78;5011296;28;20034;-77
2022/01/23 11:08:22;;;;;;;9.77;5.70;;;;;;;4.15;40.98;101137.78;5011539;28;20093;-79
2022/01/23 11:10:59;;;;;;;13.82;6.78;;;;;;;4.15;40.97;101124.47;4996191;28;20473;-77
2022/01/23 11:19:39;;;;;;;14.25;6.57;;;;;;;4.21;40.87;101126.84;4997881;28;20118;-78
2022/01/23 11:22:06;;;;;;;13.43;6.15;;;;;;;4.12;41.21;101135.25;4995609;28;20440;-78
2022/01/23 11:24:42;;;;;;;18.35;7.38;;;;;;;4.04;41.27;101129.41;4995765;28;20037;-80
2022/01/23 11:27:08;;;;;;;13.85;8.18;;;;;;;4.06;41.94;101121.38;5013078;28;20033;-78
2022/01/23 11:29:34;;;;;;;14.55;6.53;;;;;;;4.15;41.04;101121.81;5013436;28;20049;-77
2022/01/23 11:31:59;;;;;;;14.35;6.85;;;;;;;4.34;40.69;101119.97;5013810;28;20108;-80
2022/01/23 11:34:28;;;;;;;17.38;7.75;;;;;;;4.38;40.00;101121.56;5004772;28;20026;-77
2022/01/23 11:36:53;;;;;;;15.05;7.32;;;;;;;4.22;39.83;101125.06;4994257;28;20057;-77
2022/01/23 11:39:35;;;;;;;11.35;6.57;;;;;;;4.12;39.97;101121.09;4993952;28;20049;-76
2022/01/23 11:50:49;;;;;;;12.68;6.90;;;;;;;3.80;40.48;101127.88;4973461;28;20057;-79
2022/01/23 11:56:35;;;;;;;28.33;10.55;;;;;;;3.74;41.27;101117.53;5014219;28;20091;-83
2022/01/23 11:59:10;;;;;;;14.77;7.35;;;;;;;3.71;41.68;101125.63;4998949;28;20137;-87
2022/01/23 12:01:39;;;;;;;17.50;9.25;;;;;;;3.67;41.58;101114.28;5017813;28;20040;-88
2022/01/23 12:04:15;;;;;;;18.50;9.10;;;;;;;3.78;41.20;101127.97;5016235;28;20080;-90
2022/01/23 12:06:42;;;;;;;13.43;7.70;;;;;;;3.71;40.99;101115.88;5012701;28;20365;-83
2022/01/23 12:09:17;;;;;;;20.15;11.50;;;;;;;3.78;40.93;101125.31;5015028;28;20053;-84
2022/01/23 12:12:20;;;;;;;17.05;8.63;;;;;;;3.82;40.80;101128.69;5015113;28;20403;-85
2022/01/23 12:17:17;;;;;;;13.25;7.55;;;;;;;3.89;40.90;101130.13;5018287;28;20083;-88
2022/01/23 12:19:50;;;;;;;21.25;10.07;;;;;;;3.78;40.29;101119.97;5009194;28;20109;-93
2022/01/23 12:22:34;;;;;;;17.10;8.30;;;;;;;3.82;40.26;101139.34;4997452;28;20044;-88
2022/01/23 12:25:16;;;;;;;12.90;7.38;;;;;;;3.73;40.36;101129.94;5014075;28;20037;-87
2022/01/23 12:27:42;;;;;;;31.58;13.60;;;;;;;3.85;40.99;101137.38;5004806;28;20033;-89
2022/01/23 12:30:33;;;;;;;21.38;10.13;;;;;;;3.87;40.44;101141.78;5022712;28;20066;-87
2022/01/23 12:33:22;;;;;;;22.70;10.55;;;;;;;3.77;40.69;101126.22;5015212;28;20041;-86
2022/01/23 12:38:53;;;;;;;15.13;7.53;;;;;;;3.74;40.40;101133.47;1295282;26;21258;-89
2022/01/23 12:44:13;;;;;;;23.33;9.55;;;;;;;3.85;39.99;101144.50;5166542;22;20053;-91
2022/01/23 12:46:41;;;;;;;20.23;10.75;;;;;;;3.79;40.68;101136.81;5039056;28;20528;-87
2022/01/23 12:49:26;;;;;;;12.55;7.78;;;;;;;3.81;41.85;101140.25;5055105;28;20032;-89
2022/01/23 12:52:15;;;;;;;16.70;7.43;;;;;;;3.76;40.99;101150.25;5037013;28;20142;-86
2022/01/23 12:54:47;;;;;;;19.25;8.60;;;;;;;3.79;41.15;101150.13;5054622;28;20509;-86
2022/01/23 12:57:15;;;;;;;18.80;7.88;;;;;;;3.70;39.98;101153.19;5036053;28;20051;-86
2022/01/23 12:59:43;;;;;;;19.17;8.07;;;;;;;3.60;39.98;101133.25;5033326;28;20033;-82
2022/01/23 13:02:15;;;;;;;14.25;6.30;;;;;;;3.64;39.45;101145.50;5034258;28;20042;-84
2022/01/23 13:04:44;;;;;;;20.27;9.57;;;;;;;3.58;39.00;101159.91;5056321;28;20082;-89
2022/01/23 13:07:19;;;;;;;45.42;19.88;;;;;;;3.69;39.69;101162.09;5056426;28;20036;-84
2022/01/23 13:34:26;;;;;;;20.10;9.32;;;;;;;3.37;40.41;101163.50;5051596;28;20087;-79
2022/01/23 13:37:14;;;;;;;13.77;8.63;;;;;;;3.43;40.15;101173.00;5051295;28;20029;-78
2022/01/23 13:39:47;;;;;;;15.15;7.82;;;;;;;3.41;40.16;101185.50;5052037;28;20118;-80
2022/01/23 13:53:37;;;;;;;14.85;7.47;;;;;;;3.22;40.54;101174.78;5048669;28;20513;-80
2022/01/23 13:59:37;;;;;;;18.00;9.48;;;;;;;3.19;40.01;101190.84;5052983;28;20120;-80
2022/01/23 14:02:18;;;;;;;14.30;7.32;;;;;;;3.11;40.38;101188.53;5051969;28;20024;-80
2022/01/23 14:04:48;;;;;;;11.82;6.85;;;;;;;3.13;40.70;101196.44;5052286;28;20039;-80
2022/01/23 14:07:26;;;;;;;10.60;5.38;;;;;;;3.03;40.71;101182.66;5055172;28;20027;-80
2022/01/23 14:09:55;;;;;;;13.60;6.00;;;;;;;3.05;40.97;101182.59;5051990;28;20025;-81
2022/01/23 14:12:21;;;;;;;16.10;8.07;;;;;;;3.05;41.02;101191.44;5052233;28;20387;-80
2022/01/23 14:15:05;;;;;;;54.03;22.85;;;;;;;3.05;41.46;101186.13;5052629;28;20032;-80
2022/01/23 14:17:35;;;;;;;22.75;10.32;;;;;;;3.10;41.59;101191.25;5035333;28;20417;-80
2022/01/23 14:20:12;;;;;;;21.55;10.45;;;;;;;3.12;41.91;101200.03;5053304;28;20119;-82
2022/01/23 14:22:41;;;;;;;16.05;7.72;;;;;;;3.08;42.70;101201.97;5052031;28;20051;-81
2022/01/23 14:25:35;;;;;;;16.25;7.35;;;;;;;2.99;43.23;101204.13;5054581;28;20446;-80
2022/01/23 14:28:14;;;;;;;18.40;7.75;;;;;;;2.91;43.28;101204.41;5052621;28;20422;-80
2022/01/23 14:30:45;;;;;;;18.50;9.20;;;;;;;2.81;43.53;101204.88;5054853;28;20040;-81
2022/01/23 14:33:17;;;;;;;17.48;9.85;;;;;;;2.87;43.80;101215.25;5055628;28;20029;-80
2022/01/23 14:35:43;;;;;;;17.00;9.27;;;;;;;2.90;43.73;101220.44;5055553;28;20470;-80
2022/01/23 14:38:18;;;;;;;15.48;7.60;;;;;;;2.92;43.20;101219.44;5056185;28;20032;-81
2022/01/23 14:41:09;;;;;;;25.70;10.00;;;;;;;2.84;43.31;101220.69;5067012;28;20025;-80
2022/01/23 14:43:39;;;;;;;26.17;11.90;;;;;;;2.80;43.57;101209.31;5021201;28;20507;-80
2022/01/23 14:46:11;;;;;;;19.08;9.57;;;;;;;2.94;42.78;101220.22;5055159;28;20051;-81
2022/01/23 14:48:43;;;;;;;13.45;8.05;;;;;;;2.90;42.56;101216.00;5055227;28;20025;-81
2022/01/23 14:51:09;;;;;;;17.70;10.00;;;;;;;2.84;42.40;101223.34;5055462;28;20166;-81
2022/01/23 14:53:37;;;;;;;16.35;9.57;;;;;;;2.80;42.63;101227.91;5055612;28;20060;-82
2022/01/23 14:56:05;;;;;;;15.68;9.30;;;;;;;2.79;42.88;101234.13;5055489;28;20029;-80
2022/01/23 14:58:33;;;;;;;16.48;10.32;;;;;;;2.84;42.62;101236.63;5054546;28;20053;-81
2022/01/23 15:00:59;;;;;;;28.08;11.07;;;;;;;2.85;42.74;101239.19;5037107;28;20529;-79
2022/01/23 15:03:28;;;;;;;20.50;11.18;;;;;;;2.86;42.93;101246.25;5055007;28;20111;-81
2022/01/23 15:05:54;;;;;;;20.23;12.27;;;;;;;2.87;42.68;101237.38;5054928;28;20029;-81
2022/01/23 15:08:22;;;;;;;34.55;14.80;;;;;;;2.94;43.09;101254.78;5054942;28;20049;-81
2022/01/23 15:10:50;;;;;;;48.58;21.00;;;;;;;2.94;42.75;101245.94;5055382;28;20021;-81